Time;durP1;ratioP1;P1;durP2;ratioP2;P2;SDS_P1;SDS_P2;PMS_P1;PMS_P2;Temp;Humidity;BMP_temperature;BMP_pressure;BME280_temperature;BME280_humidity;BME280_pressure;Samples;Min_cycle;Max_cycle;Signal;HPM_P1;HPM_P2
2023/09/16 00:00:08;;;;;;;16.10;13.53;;;13.40;90.20;;;;;;5041280;28;20276;-68
2023/09/16 00:02:35;;;;;;;13.93;12.53;;;13.30;90.40;;;;;;5040566;28;20037;-68
2023/09/16 00:05:01;;;;;;;16.93;13.13;;;13.30;90.70;;;;;;5024589;28;20314;-68
2023/09/16 00:07:27;;;;;;;14.13;12.67;;;13.20;90.70;;;;;;5028291;28;20314;-67
2023/09/16 00:09:56;;;;;;;16.17;14.67;;;13.20;90.70;;;;;;5041875;28;20076;-67
2023/09/16 00:12:26;;;;;;;15.23;13.50;;;13.20;90.90;;;;;;5024264;28;20283;-68
2023/09/16 00:14:52;;;;;;;16.13;14.57;;;13.20;91.00;;;;;;5055809;28;20300;-68
2023/09/16 00:17:18;;;;;;;16.97;13.73;;;13.20;91.20;;;;;;5049572;28;20290;-68
2023/09/16 00:19:44;;;;;;;17.17;15.07;;;13.20;91.30;;;;;;5041935;28;20360;-68
2023/09/16 00:22:10;;;;;;;17.67;15.87;;;13.20;91.40;;;;;;5047770;28;20116;-68
2023/09/16 00:24:37;;;;;;;16.63;14.80;;;13.30;91.60;;;;;;5048005;28;20430;-68
2023/09/16 00:27:03;;;;;;;16.40;14.67;;;13.40;91.60;;;;;;5047104;28;20044;-68
2023/09/16 00:29:29;;;;;;;18.20;14.37;;;13.50;91.60;;;;;;5044996;28;20287;-68
2023/09/16 00:31:56;;;;;;;16.53;14.90;;;13.50;91.70;;;;;;5047649;28;20310;-68
2023/09/16 00:34:22;;;;;;;16.40;14.90;;;13.60;91.60;;;;;;5045585;28;20045;-68
2023/09/16 00:36:47;;;;;;;16.13;14.37;;;13.60;91.60;;;;;;5051866;28;20368;-68
2023/09/16 00:39:13;;;;;;;17.10;15.60;;;13.70;91.50;;;;;;5050020;28;20131;-68
2023/09/16 00:41:40;;;;;;;16.73;15.03;;;13.70;91.50;;;;;;5050064;28;20052;-68
2023/09/16 00:44:06;;;;;;;17.23;14.50;;;13.70;91.50;;;;;;5049137;28;20040;-68
2023/09/16 00:46:31;;;;;;;15.70;14.10;;;13.60;91.60;;;;;;5028077;28;20295;-68
2023/09/16 00:48:58;;;;;;;14.63;13.33;;;13.60;91.60;;;;;;5047806;28;20415;-68
2023/09/16 00:51:23;;;;;;;17.03;14.77;;;13.60;91.60;;;;;;5047319;28;20048;-68
2023/09/16 00:53:51;;;;;;;16.17;14.13;;;13.60;91.60;;;;;;5041838;28;20372;-68
2023/09/16 00:56:17;;;;;;;13.50;12.10;;;13.50;91.60;;;;;;5040244;28;20099;-68
2023/09/16 00:58:44;;;;;;;14.03;12.63;;;13.50;91.50;;;;;;5044163;28;20299;-68
2023/09/16 01:01:10;;;;;;;14.27;12.80;;;13.40;91.40;;;;;;5036262;28;20288;-68
2023/09/16 01:03:37;;;;;;;15.77;12.13;;;13.40;91.80;;;;;;5039183;28;20367;-68
2023/09/16 01:06:04;;;;;;;13.27;11.87;;;13.30;91.80;;;;;;5053245;28;20326;-68
2023/09/16 01:08:32;;;;;;;16.87;15.07;;;13.30;91.80;;;;;;5031743;28;20280;-68
2023/09/16 01:10:58;;;;;;;14.80;13.30;;;13.20;91.80;;;;;;5034812;28;20295;-68
2023/09/16 01:13:24;;;;;;;15.97;14.50;;;13.20;92.00;;;;;;5034871;28;20310;-68
2023/09/16 01:16:07;;;;;;;14.97;12.60;;;13.20;92.00;;;;;;5017628;28;20086;-68
2023/09/16 01:18:39;;;;;;;16.27;14.57;;;13.20;92.10;;;;;;5042014;28;20830;-68
2023/09/16 01:21:05;;;;;;;16.10;14.67;;;13.10;92.20;;;;;;5043013;28;20771;-68
2023/09/16 01:23:32;;;;;;;14.97;13.40;;;13.10;92.30;;;;;;5022017;28;20280;-68
2023/09/16 01:25:58;;;;;;;15.90;14.30;;;13.10;92.40;;;;;;5035509;28;20277;-68
2023/09/16 01:28:25;;;;;;;14.90;13.33;;;13.10;92.60;;;;;;5042673;28;20625;-68
2023/09/16 01:30:51;;;;;;;15.27;13.67;;;13.00;92.40;;;;;;5047183;28;20044;-68
2023/09/16 01:33:37;;;;;;;17.53;15.17;;;13.00;92.50;;;;;;5015629;28;20280;-68
2023/09/16 01:36:13;;;;;;;15.43;12.87;;;13.00;92.50;;;;;;5062430;28;20283;-68
2023/09/16 01:38:43;;;;;;;17.17;14.60;;;13.00;92.80;;;;;;5040589;28;20303;-68
2023/09/16 01:41:10;;;;;;;15.30;13.80;;;13.00;92.70;;;;;;5025729;28;20287;-68
2023/09/16 01:43:37;;;;;;;15.67;14.07;;;13.00;92.70;;;;;;5044873;28;20306;-68
2023/09/16 01:46:03;;;;;;;18.67;16.60;;;13.10;92.70;;;;;;5033802;28;20291;-68
2023/09/16 01:48:29;;;;;;;16.83;14.30;;;13.00;92.80;;;;;;5044438;28;20291;-68
2023/09/16 01:50:54;;;;;;;15.20;13.57;;;13.00;92.80;;;;;;5018836;28;20124;-68
2023/09/16 01:53:20;;;;;;;16.00;14.43;;;13.00;92.90;;;;;;5075153;28;20110;-68
2023/09/16 01:55:46;;;;;;;17.90;15.63;;;13.00;93.00;;;;;;5039968;28;20124;-68
2023/09/16 01:58:11;;;;;;;18.43;16.47;;;13.00;93.00;;;;;;5045041;28;20428;-68
2023/09/16 02:00:37;;;;;;;17.20;15.27;;;13.00;93.20;;;;;;5041897;28;20084;-68
2023/09/16 02:03:03;;;;;;;19.60;17.67;;;13.00;93.30;;;;;;5045016;28;20107;-68
2023/09/16 02:05:29;;;;;;;18.30;16.40;;;13.00;93.30;;;;;;5027476;28;20127;-68
2023/09/16 02:07:57;;;;;;;17.30;15.23;;;13.00;93.30;;;;;;5043174;28;20315;-68
2023/09/16 02:10:22;;;;;;;18.60;15.83;;;13.00;93.40;;;;;;5035857;28;20284;-68
2023/09/16 02:12:48;;;;;;;16.03;14.33;;;13.00;93.30;;;;;;5031081;28;20628;-68
2023/09/16 02:15:14;;;;;;;17.23;15.00;;;12.90;93.50;;;;;;5020181;28;20041;-68
2023/09/16 02:17:40;;;;;;;17.33;15.63;;;12.90;93.50;;;;;;5040704;28;20465;-68
2023/09/16 02:20:12;;;;;;;19.23;16.67;;;12.80;93.70;;;;;;5030212;28;20033;-68
2023/09/16 02:22:40;;;;;;;18.53;16.53;;;12.80;93.80;;;;;;5036379;28;20276;-68
2023/09/16 02:25:06;;;;;;;19.70;17.80;;;12.80;93.90;;;;;;5036361;28;20296;-68
2023/09/16 02:27:32;;;;;;;20.07;17.93;;;12.80;94.00;;;;;;5039996;28;20289;-68
2023/09/16 02:29:58;;;;;;;18.50;16.70;;;12.80;94.10;;;;;;5057745;28;20044;-68
2023/09/16 02:32:24;;;;;;;19.00;17.10;;;12.80;94.20;;;;;;5062209;28;20683;-68
2023/09/16 02:34:49;;;;;;;18.43;16.53;;;12.70;94.30;;;;;;5053161;28;20037;-68
2023/09/16 02:37:15;;;;;;;19.27;17.37;;;12.70;94.30;;;;;;5034361;28;20040;-68
2023/09/16 02:39:41;;;;;;;20.13;16.90;;;12.70;94.30;;;;;;5035353;28;20486;-68
2023/09/16 02:42:06;;;;;;;20.07;18.17;;;12.70;94.40;;;;;;5023821;28;20037;-68
2023/09/16 02:44:32;;;;;;;17.03;15.33;;;12.70;94.50;;;;;;5038876;28;20507;-68
2023/09/16 02:46:58;;;;;;;17.43;15.70;;;12.60;94.60;;;;;;5033192;28;20068;-68
2023/09/16 02:49:23;;;;;;;18.37;16.20;;;12.60;94.60;;;;;;5040199;28;20429;-68
2023/09/16 02:51:49;;;;;;;17.47;15.23;;;12.60;94.70;;;;;;5042511;28;20068;-68
2023/09/16 02:54:15;;;;;;;17.47;15.47;;;12.50;94.70;;;;;;5042091;28;20103;-68
2023/09/16 02:56:41;;;;;;;16.37;14.70;;;12.50;94.80;;;;;;5044826;28;20041;-68
2023/09/16 02:59:06;;;;;;;16.20;13.53;;;12.40;94.90;;;;;;5046172;28;20056;-68
2023/09/16 03:01:32;;;;;;;18.40;16.50;;;12.40;95.00;;;;;;5035631;28;20489;-68
2023/09/16 03:03:58;;;;;;;18.23;15.80;;;12.30;95.00;;;;;;5045385;28;20087;-68
2023/09/16 03:06:25;;;;;;;18.93;17.13;;;12.30;95.00;;;;;;5043094;28;20041;-68
2023/09/16 03:08:52;;;;;;;17.23;15.50;;;12.30;95.20;;;;;;5044568;28;20448;-68
2023/09/16 03:11:18;;;;;;;17.63;15.83;;;12.20;95.20;;;;;;5048502;28;20295;-68
2023/09/16 03:13:44;;;;;;;22.50;17.50;;;12.20;95.20;;;;;;5048411;28;20303;-68
2023/09/16 03:16:21;;;;;;;25.27;23.03;;;12.20;95.30;;;;;;5048668;28;20782;-68
2023/09/16 03:18:49;;;;;;;21.07;18.97;;;12.10;95.40;;;;;;5042292;28;20132;-68
2023/09/16 03:21:15;;;;;;;16.87;15.17;;;12.00;95.50;;;;;;5040045;28;20367;-68
2023/09/16 03:23:42;;;;;;;17.07;15.37;;;12.00;95.50;;;;;;5041354;28;20287;-68
2023/09/16 03:26:10;;;;;;;18.37;16.10;;;11.90;95.50;;;;;;5054696;28;20288;-68
2023/09/16 03:28:38;;;;;;;19.50;17.60;;;11.90;95.50;;;;;;5032951;28;20271;-68
2023/09/16 03:31:03;;;;;;;18.60;16.70;;;11.80;95.50;;;;;;5037073;28;20768;-68
2023/09/16 03:33:29;;;;;;;16.67;15.00;;;11.70;95.80;;;;;;5040679;28;20290;-68
2023/09/16 03:35:55;;;;;;;17.50;15.70;;;11.70;95.70;;;;;;5040884;28;20434;-68
2023/09/16 03:38:21;;;;;;;16.53;14.87;;;11.60;95.70;;;;;;5045237;28;20053;-68
2023/09/16 03:40:47;;;;;;;16.67;15.07;;;11.50;95.70;;;;;;5045058;28;20062;-68
2023/09/16 03:43:13;;;;;;;17.40;15.80;;;11.50;95.90;;;;;;5043864;28;20356;-68
2023/09/16 03:45:39;;;;;;;16.73;15.07;;;11.40;95.90;;;;;;5045316;28;20073;-68
2023/09/16 03:48:05;;;;;;;16.57;14.97;;;11.40;95.90;;;;;;5046964;28;20680;-67
2023/09/16 03:50:31;;;;;;;18.67;16.63;;;11.30;96.00;;;;;;5021462;28;20049;-68
2023/09/16 03:52:56;;;;;;;18.37;16.60;;;11.30;96.50;;;;;;5032739;28;20284;-68
2023/09/16 03:55:22;;;;;;;17.97;16.23;;;11.30;96.40;;;;;;5040236;28;20160;-68
2023/09/16 03:57:48;;;;;;;18.27;16.53;;;11.20;96.40;;;;;;5043286;28;20033;-68
2023/09/16 04:00:13;;;;;;;19.40;17.70;;;11.20;96.20;;;;;;5037916;28;20044;-68
2023/09/16 04:02:39;;;;;;;17.20;15.40;;;11.20;96.20;;;;;;5044226;28;20090;-68
2023/09/16 04:05:06;;;;;;;20.53;18.33;;;11.10;96.20;;;;;;5043277;28;20061;-68
2023/09/16 04:07:32;;;;;;;21.97;19.90;;;11.10;96.30;;;;;;5033334;28;20471;-68
2023/09/16 04:09:58;;;;;;;21.47;19.37;;;11.10;96.60;;;;;;5030789;28;20358;-68
2023/09/16 04:12:23;;;;;;;22.37;20.00;;;11.10;96.60;;;;;;5042648;28;20041;-68
2023/09/16 04:14:50;;;;;;;21.17;19.17;;;11.10;96.70;;;;;;5042474;28;20040;-68
2023/09/16 04:17:16;;;;;;;22.57;20.27;;;11.10;96.60;;;;;;5040731;28;20046;-68
2023/09/16 04:19:41;;;;;;;21.90;19.70;;;11.10;96.80;;;;;;5042686;28;20347;-68
2023/09/16 04:22:07;;;;;;;24.60;22.00;;;11.20;97.00;;;;;;5049963;28;20050;-68
2023/09/16 04:24:33;;;;;;;21.23;19.20;;;11.20;96.90;;;;;;5044182;28;20038;-68
2023/09/16 04:26:58;;;;;;;22.87;20.40;;;11.20;97.10;;;;;;5046293;28;20037;-68
2023/09/16 04:29:24;;;;;;;25.67;21.73;;;11.30;97.20;;;;;;5047888;28;20543;-68
2023/09/16 04:31:51;;;;;;;24.63;22.07;;;11.30;97.20;;;;;;5036218;28;20488;-68
2023/09/16 04:34:16;;;;;;;24.40;21.90;;;11.30;97.30;;;;;;5051366;28;20083;-68
2023/09/16 04:36:42;;;;;;;24.40;20.97;;;11.30;97.20;;;;;;5048108;28;20307;-68
2023/09/16 04:39:08;;;;;;;25.40;22.63;;;11.30;97.20;;;;;;5049951;28;20045;-68
2023/09/16 04:41:34;;;;;;;26.40;23.60;;;11.30;97.40;;;;;;5050070;28;20029;-68
2023/09/16 04:44:00;;;;;;;24.90;22.30;;;11.40;97.40;;;;;;5040592;28;20643;-68
2023/09/16 04:46:26;;;;;;;24.10;21.77;;;11.40;97.50;;;;;;5041651;28;20287;-68
2023/09/16 04:48:51;;;;;;;23.60;21.10;;;11.40;97.60;;;;;;5050261;28;20037;-68
2023/09/16 04:51:17;;;;;;;23.73;20.73;;;11.40;97.60;;;;;;5049927;28;20512;-68
2023/09/16 04:53:43;;;;;;;24.13;21.57;;;11.40;97.50;;;;;;5042391;28;20049;-68
2023/09/16 04:56:11;;;;;;;23.27;20.90;;;11.40;97.70;;;;;;5026040;28;20029;-68
2023/09/16 04:58:37;;;;;;;22.97;20.60;;;11.40;97.60;;;;;;5037703;28;20045;-68
2023/09/16 05:01:04;;;;;;;24.70;21.57;;;11.40;97.70;;;;;;5045666;28;20291;-68
2023/09/16 05:03:31;;;;;;;24.97;21.67;;;11.30;97.70;;;;;;5027258;28;20366;-68
2023/09/16 05:05:57;;;;;;;25.90;22.97;;;11.40;97.80;;;;;;5039416;28;20279;-68
2023/09/16 05:08:22;;;;;;;23.93;21.43;;;11.40;98.00;;;;;;5049825;28;20817;-68
2023/09/16 05:10:53;;;;;;;24.87;22.20;;;11.40;98.00;;;;;;5048921;28;20102;-68
2023/09/16 05:13:19;;;;;;;24.73;21.17;;;11.40;98.00;;;;;;5046869;28;20033;-68
2023/09/16 05:15:50;;;;;;;25.37;21.93;;;11.40;98.00;;;;;;5046613;28;20311;-68
2023/09/16 05:18:17;;;;;;;22.03;19.80;;;11.40;98.10;;;;;;5048123;28;20037;-68
2023/09/16 05:20:43;;;;;;;23.77;18.93;;;11.30;98.10;;;;;;5046108;28;20290;-67
2023/09/16 05:23:08;;;;;;;22.50;18.87;;;11.40;98.10;;;;;;5051326;28;20275;-67
2023/09/16 05:25:34;;;;;;;30.50;19.67;;;11.40;98.30;;;;;;5045065;28;20045;-67
2023/09/16 05:28:00;;;;;;;24.60;19.70;;;11.40;98.30;;;;;;5014996;28;20045;-68
2023/09/16 05:30:25;;;;;;;22.47;19.47;;;11.40;98.40;;;;;;5017705;28;20103;-68
2023/09/16 05:32:51;;;;;;;24.20;19.97;;;11.40;98.50;;;;;;5038827;28;20036;-68
2023/09/16 05:35:17;;;;;;;22.90;17.60;;;11.40;98.50;;;;;;5040451;28;20048;-68
2023/09/16 05:37:42;;;;;;;21.43;17.60;;;11.40;98.50;;;;;;5035389;28;20409;-68
2023/09/16 05:40:08;;;;;;;23.53;19.10;;;11.40;98.50;;;;;;5039782;28;20045;-68
2023/09/16 05:42:35;;;;;;;21.63;19.33;;;11.50;98.70;;;;;;5044964;28;20043;-68
2023/09/16 05:45:02;;;;;;;23.63;19.67;;;11.50;98.80;;;;;;5047211;28;20414;-68
2023/09/16 05:47:29;;;;;;;28.30;25.13;;;11.60;98.70;;;;;;5041037;28;20287;-68
2023/09/16 05:49:55;;;;;;;26.90;24.40;;;11.60;98.80;;;;;;5047199;28;20286;-68
2023/09/16 05:52:21;;;;;;;24.00;21.70;;;11.60;98.70;;;;;;5030307;28;20795;-68
2023/09/16 05:54:46;;;;;;;24.97;22.53;;;11.70;98.80;;;;;;5045186;28;20148;-69
2023/09/16 05:57:12;;;;;;;26.53;23.93;;;11.70;98.90;;;;;;5046193;28;20121;-69
2023/09/16 05:59:39;;;;;;;27.03;24.40;;;11.80;99.00;;;;;;5026711;28;20037;-69
2023/09/16 06:02:05;;;;;;;24.40;22.00;;;11.90;99.00;;;;;;5042119;28;20283;-69
2023/09/16 06:04:31;;;;;;;27.73;25.03;;;11.90;99.00;;;;;;5044297;28;20286;-69
2023/09/16 06:06:56;;;;;;;26.73;24.03;;;12.00;99.00;;;;;;5038428;28;20667;-69
2023/09/16 06:09:22;;;;;;;29.33;26.63;;;12.00;99.00;;;;;;5044220;28;20129;-69
2023/09/16 06:11:48;;;;;;;27.10;24.43;;;12.10;99.10;;;;;;5038458;28;20056;-69
2023/09/16 06:14:14;;;;;;;27.50;24.90;;;12.20;99.10;;;;;;5049670;28;20440;-69
2023/09/16 06:16:39;;;;;;;32.70;29.73;;;12.30;99.10;;;;;;5049563;28;20056;-69
2023/09/16 06:19:05;;;;;;;31.47;28.47;;;12.40;99.20;;;;;;5045653;28;20091;-67
2023/09/16 06:21:31;;;;;;;29.57;26.73;;;12.50;99.20;;;;;;5032996;28;20082;-67
2023/09/16 06:23:57;;;;;;;35.57;32.03;;;12.60;99.30;;;;;;5048382;28;20485;-67
2023/09/16 06:26:23;;;;;;;32.70;29.67;;;12.60;99.30;;;;;;5043981;28;20036;-67
2023/09/16 06:28:49;;;;;;;33.87;30.67;;;12.70;99.20;;;;;;5028245;28;20371;-67
2023/09/16 06:31:15;;;;;;;34.90;31.80;;;12.80;99.20;;;;;;5031450;28;20375;-67
2023/09/16 06:33:40;;;;;;;35.80;32.70;;;12.90;99.20;;;;;;5039737;28;20041;-66
2023/09/16 06:36:06;;;;;;;36.53;33.37;;;13.10;99.10;;;;;;5044596;28;20041;-66
2023/09/16 06:38:32;;;;;;;32.13;29.17;;;13.20;99.20;;;;;;5047070;28;20053;-66
2023/09/16 06:40:58;;;;;;;36.10;33.03;;;13.30;99.30;;;;;;5038519;28;20033;-66
2023/09/16 06:43:24;;;;;;;34.70;31.40;;;13.40;99.20;;;;;;5024291;28;20033;-66
2023/09/16 06:45:49;;;;;;;35.13;32.10;;;13.50;99.10;;;;;;5045004;28;20045;-66
2023/09/16 06:48:15;;;;;;;44.60;40.97;;;13.60;99.10;;;;;;5035762;28;20041;-66
2023/09/16 06:50:42;;;;;;;36.57;33.57;;;13.70;99.40;;;;;;5032340;28;20041;-66
2023/09/16 06:53:08;;;;;;;33.20;30.27;;;13.70;99.30;;;;;;5034240;28;20346;-66
2023/09/16 06:55:34;;;;;;;38.13;34.93;;;13.80;99.10;;;;;;5034141;28;20304;-67
2023/09/16 06:58:04;;;;;;;38.67;35.43;;;13.90;99.20;;;;;;5039206;28;20041;-67
2023/09/16 07:00:30;;;;;;;39.33;36.10;;;13.90;99.20;;;;;;5038707;28;20126;-68
2023/09/16 07:02:57;;;;;;;36.70;33.77;;;14.00;99.00;;;;;;5043901;28;20310;-68
2023/09/16 07:05:23;;;;;;;41.23;38.13;;;14.10;98.80;;;;;;5023067;28;20799;-68
2023/09/16 07:07:49;;;;;;;48.93;45.23;;;14.20;98.90;;;;;;5039556;28;20314;-68
2023/09/16 07:10:15;;;;;;;46.73;43.10;;;14.30;99.10;;;;;;5033583;28;20037;-68
2023/09/16 07:12:40;;;;;;;47.43;44.07;;;14.40;99.30;;;;;;5013340;28;20061;-68
2023/09/16 07:15:06;;;;;;;54.30;50.27;;;14.50;99.20;;;;;;5036257;28;20033;-68
2023/09/16 07:17:34;;;;;;;52.60;49.13;;;14.60;98.80;;;;;;5043479;28;20069;-68
2023/09/16 07:20:00;;;;;;;53.23;49.40;;;14.70;98.80;;;;;;5041129;28;20290;-68
2023/09/16 07:22:26;;;;;;;52.30;48.57;;;14.80;98.90;;;;;;5049234;28;20280;-68
2023/09/16 07:24:51;;;;;;;62.83;58.50;;;15.00;98.70;;;;;;5044785;28;20295;-68
2023/09/16 07:27:17;;;;;;;29.57;26.97;;;15.10;98.40;;;;;;5047927;28;20049;-68
2023/09/16 07:29:43;;;;;;;22.50;19.97;;;15.10;98.30;;;;;;5040345;28;20125;-68
2023/09/16 07:32:09;;;;;;;36.40;33.57;;;15.30;98.30;;;;;;5040558;28;20493;-69
2023/09/16 07:34:35;;;;;;;20.23;18.13;;;15.30;98.00;;;;;;5034804;28;20330;-68
2023/09/16 07:37:03;;;;;;;48.30;44.63;;;15.40;97.70;;;;;;5048265;28;20040;-68
2023/09/16 07:39:29;;;;;;;22.37;19.37;;;15.50;97.50;;;;;;5041467;28;20045;-68
2023/09/16 07:41:55;;;;;;;36.37;33.37;;;15.60;97.50;;;;;;5042034;28;20308;-68
2023/09/16 07:44:21;;;;;;;31.03;28.37;;;15.70;97.40;;;;;;5039616;28;20296;-68
2023/09/16 07:46:48;;;;;;;59.20;55.17;;;15.80;97.30;;;;;;5055233;28;20107;-68
2023/09/16 07:49:15;;;;;;;70.43;66.07;;;15.90;97.10;;;;;;5042013;28;20505;-69
2023/09/16 07:51:41;;;;;;;64.03;59.97;;;16.10;97.00;;;;;;5023164;28;20323;-69
2023/09/16 07:54:10;;;;;;;40.17;37.30;;;16.20;96.80;;;;;;5042914;28;20339;-69
2023/09/16 07:56:35;;;;;;;61.67;57.60;;;16.30;96.40;;;;;;5036726;28;20049;-69
2023/09/16 07:59:01;;;;;;;67.07;62.83;;;16.40;96.00;;;;;;5036719;28;20624;-69
2023/09/16 08:01:29;;;;;;;73.93;69.10;;;16.50;95.90;;;;;;5019421;28;20121;-69
2023/09/16 08:03:54;;;;;;;78.33;73.53;;;16.60;95.90;;;;;;5038138;28;20151;-69
2023/09/16 08:06:20;;;;;;;77.73;72.87;;;16.70;95.80;;;;;;5049441;28;20359;-68
2023/09/16 08:08:49;;;;;;;28.87;26.30;;;16.90;95.60;;;;;;5037590;28;20625;-68
2023/09/16 08:11:15;;;;;;;68.67;64.13;;;17.00;95.20;;;;;;5077016;28;20041;-68
2023/09/16 08:13:41;;;;;;;89.60;83.63;;;17.10;94.90;;;;;;5048045;28;20311;-67
2023/09/16 08:16:06;;;;;;;92.93;86.83;;;17.30;94.60;;;;;;5045675;28;20930;-68
2023/09/16 08:18:32;;;;;;;104.97;98.67;;;17.40;94.10;;;;;;5046959;28;20082;-69
2023/09/16 08:20:59;;;;;;;104.53;98.17;;;17.50;93.70;;;;;;5045547;28;20370;-68
2023/09/16 08:23:24;;;;;;;116.03;108.83;;;17.60;93.20;;;;;;5043899;28;20072;-68
2023/09/16 08:25:50;;;;;;;118.97;111.70;;;17.80;93.30;;;;;;5042808;28;20858;-69
2023/09/16 08:28:16;;;;;;;97.10;91.00;;;17.90;93.10;;;;;;5043552;28;20110;-69
2023/09/16 08:30:41;;;;;;;126.07;118.37;;;18.00;92.20;;;;;;5043650;28;20056;-69
2023/09/16 08:33:09;;;;;;;131.03;123.23;;;18.10;91.90;;;;;;5041702;28;20120;-69
2023/09/16 08:35:35;;;;;;;134.57;126.37;;;18.30;91.70;;;;;;5070251;28;20422;-69
2023/09/16 08:38:02;;;;;;;127.20;119.43;;;18.40;91.00;;;;;;5035598;28;20314;-69
2023/09/16 08:40:32;;;;;;;106.40;99.70;;;18.50;90.50;;;;;;5033824;28;20644;-69
2023/09/16 08:43:15;;;;;;;139.90;131.33;;;18.60;89.20;;;;;;5040598;28;20280;-69
2023/09/16 08:45:45;;;;;;;139.90;131.20;;;18.70;89.40;;;;;;5034018;28;20695;-69
2023/09/16 08:48:17;;;;;;;128.63;120.73;;;18.80;89.20;;;;;;5034785;28;20279;-69
2023/09/16 08:50:43;;;;;;;138.70;130.40;;;19.00;88.90;;;;;;5034668;28;20301;-69
2023/09/16 08:53:12;;;;;;;147.53;138.50;;;19.10;88.40;;;;;;5028522;28;20275;-69
2023/09/16 08:55:38;;;;;;;124.90;117.03;;;19.20;87.70;;;;;;5042050;28;20046;-69
2023/09/16 08:58:06;;;;;;;135.80;127.10;;;19.30;86.20;;;;;;5019457;28;20129;-69
2023/09/16 09:00:32;;;;;;;147.13;138.13;;;19.40;85.30;;;;;;5038535;28;20120;-69
2023/09/16 09:02:58;;;;;;;130.60;122.47;;;19.50;84.80;;;;;;5037471;28;20095;-69
2023/09/16 09:05:26;;;;;;;137.30;128.47;;;19.60;84.90;;;;;;5065921;28;20068;-69
2023/09/16 09:07:51;;;;;;;139.20;130.37;;;19.70;84.50;;;;;;5023289;28;20397;-69
2023/09/16 09:10:17;;;;;;;142.60;133.30;;;19.80;83.60;;;;;;5071923;28;20051;-69
2023/09/16 09:12:44;;;;;;;136.13;127.47;;;19.90;83.70;;;;;;5039769;28;20088;-69
2023/09/16 09:15:15;;;;;;;114.17;107.00;;;20.00;83.70;;;;;;5034968;28;20436;-69
2023/09/16 09:17:48;;;;;;;133.23;124.43;;;20.10;82.30;;;;;;5036435;28;20045;-69
2023/09/16 09:20:17;;;;;;;138.83;130.10;;;20.20;82.80;;;;;;5038835;28;20045;-69
2023/09/16 09:22:45;;;;;;;134.40;125.53;;;20.30;82.50;;;;;;5032576;28;20059;-69
2023/09/16 09:25:11;;;;;;;129.37;121.03;;;20.40;82.30;;;;;;5040731;28;20050;-69
2023/09/16 09:27:37;;;;;;;120.57;113.17;;;20.60;81.60;;;;;;5043038;28;20049;-69
2023/09/16 09:30:04;;;;;;;138.97;130.37;;;20.70;81.40;;;;;;5037008;28;20453;-69
2023/09/16 09:32:31;;;;;;;138.27;129.87;;;20.80;81.00;;;;;;5038904;28;20497;-69
2023/09/16 09:35:04;;;;;;;134.77;126.50;;;20.90;80.90;;;;;;5042895;28;20076;-69
2023/09/16 09:37:29;;;;;;;125.47;117.80;;;21.00;80.00;;;;;;4998625;28;1113335;-69
2023/09/16 09:40:09;;;;;;;137.00;128.20;;;21.10;79.20;;;;;;5038195;28;20069;-69
2023/09/16 09:42:43;;;;;;;137.40;128.83;;;21.20;78.40;;;;;;5036578;28;20038;-69
2023/09/16 09:45:10;;;;;;;139.43;131.27;;;21.40;78.30;;;;;;5047669;28;20039;-69
2023/09/16 09:47:37;;;;;;;142.73;133.87;;;21.40;77.90;;;;;;5036554;28;20038;-69
2023/09/16 09:50:04;;;;;;;144.60;135.97;;;21.50;77.60;;;;;;5041668;28;20420;-69
2023/09/16 09:52:31;;;;;;;153.03;144.17;;;21.60;76.30;;;;;;5041139;28;20045;-70
2023/09/16 09:54:58;;;;;;;139.27;130.83;;;21.70;75.10;;;;;;5042596;28;20106;-70
2023/09/16 09:57:26;;;;;;;151.47;142.50;;;21.80;73.80;;;;;;5042641;28;20041;-70
2023/09/16 09:59:52;;;;;;;154.30;145.57;;;21.80;71.20;;;;;;5036841;28;20481;-70
2023/09/16 10:02:17;;;;;;;153.93;144.60;;;21.90;70.70;;;;;;5036297;28;20040;-70
2023/09/16 10:04:43;;;;;;;156.20;147.07;;;21.90;70.20;;;;;;5039633;28;20049;-69
2023/09/16 10:07:09;;;;;;;157.40;147.77;;;22.00;70.40;;;;;;5050701;28;20045;-69
2023/09/16 10:09:34;;;;;;;157.70;148.13;;;22.10;70.30;;;;;;5035985;28;20045;-69
2023/09/16 10:12:04;;;;;;;156.67;147.33;;;22.20;69.30;;;;;;5041759;28;20041;-69
2023/09/16 10:14:32;;;;;;;163.30;153.50;;;22.30;68.50;;;;;;5029478;28;20068;-69
2023/09/16 10:16:58;;;;;;;164.13;154.50;;;22.40;67.60;;;;;;5039962;28;20044;-69
2023/09/16 10:19:25;;;;;;;161.47;151.53;;;22.50;67.20;;;;;;5042623;28;20499;-69
2023/09/16 10:21:52;;;;;;;200.73;189.07;;;22.60;66.60;;;;;;5043801;28;20041;-69
2023/09/16 10:24:19;;;;;;;162.80;152.90;;;22.70;65.20;;;;;;5042929;28;20041;-69
2023/09/16 10:26:44;;;;;;;168.40;158.30;;;22.70;65.30;;;;;;5034981;28;20060;-69
2023/09/16 10:29:12;;;;;;;172.63;162.37;;;22.70;64.60;;;;;;5047671;28;20041;-69
2023/09/16 10:31:40;;;;;;;172.63;162.47;;;22.70;63.90;;;;;;5075069;28;20456;-68
2023/09/16 10:34:06;;;;;;;166.67;156.40;;;22.60;65.70;;;;;;5020739;28;20466;-69
2023/09/16 10:36:33;;;;;;;152.43;142.87;;;22.60;65.50;;;;;;5034018;28;20041;-69
2023/09/16 10:39:00;;;;;;;152.90;143.37;;;22.70;66.30;;;;;;5036427;28;20053;-70
2023/09/16 10:41:26;;;;;;;162.50;152.97;;;22.90;65.60;;;;;;5040563;28;20033;-69
2023/09/16 10:43:52;;;;;;;159.27;149.83;;;23.00;65.00;;;;;;5033752;28;20128;-69
2023/09/16 10:46:20;;;;;;;132.97;124.67;;;23.10;64.00;;;;;;5042373;28;20037;-69
2023/09/16 10:48:46;;;;;;;160.10;150.50;;;23.10;64.30;;;;;;5037132;28;20037;-69
2023/09/16 10:51:23;;;;;;;156.37;146.53;;;23.20;65.10;;;;;;5047210;28;20090;-70
2023/09/16 10:54:09;;;;;;;184.73;174.43;;;23.40;64.10;;;;;;5044743;28;20064;-70
2023/09/16 10:56:41;;;;;;;194.93;184.03;;;23.50;63.60;;;;;;5035915;28;20121;-69
2023/09/16 10:59:10;;;;;;;187.67;176.77;;;23.60;62.90;;;;;;5042792;28;20045;-70
2023/09/16 11:02:18;;;;;;;187.53;177.20;;;23.70;62.80;;;;;;5020091;28;20679;-69
2023/09/16 11:04:43;;;;;;;197.73;186.73;;;23.80;59.80;;;;;;5059261;28;20052;-69
2023/09/16 11:07:11;;;;;;;211.47;199.97;;;24.00;60.40;;;;;;5033663;28;20041;-69
2023/09/16 11:09:37;;;;;;;240.27;227.47;;;24.00;60.60;;;;;;5036681;28;20046;-70
2023/09/16 11:12:03;;;;;;;245.07;232.03;;;24.10;60.20;;;;;;5037917;28;20041;-69
2023/09/16 11:14:29;;;;;;;232.87;220.53;;;24.10;60.00;;;;;;5040836;28;20045;-69
2023/09/16 11:16:55;;;;;;;227.47;215.60;;;24.20;60.20;;;;;;5043973;28;20438;-69
2023/09/16 11:19:25;;;;;;;235.53;223.10;;;24.30;60.60;;;;;;5039039;28;20048;-69
2023/09/16 11:21:55;;;;;;;224.30;212.40;;;24.30;60.20;;;;;;5043699;28;20041;-69
2023/09/16 11:24:21;;;;;;;232.80;220.13;;;24.40;59.80;;;;;;5044302;28;20048;-70
2023/09/16 11:26:48;;;;;;;211.30;200.07;;;24.50;59.90;;;;;;5030270;28;20033;-70
2023/09/16 11:29:18;;;;;;;224.30;212.67;;;24.50;60.70;;;;;;5032470;28;20080;-71
2023/09/16 11:31:44;;;;;;;223.40;211.70;;;24.60;59.10;;;;;;5048047;28;20041;-70
2023/09/16 11:34:22;;;;;;;226.17;214.30;;;24.50;59.10;;;;;;5046242;28;20033;-70
2023/09/16 11:36:51;;;;;;;227.87;215.80;;;24.60;59.10;;;;;;5022169;28;20053;-70
2023/09/16 11:39:18;;;;;;;238.33;225.73;;;24.60;58.60;;;;;;5014950;28;20047;-71
2023/09/16 11:41:46;;;;;;;228.30;216.40;;;24.50;59.20;;;;;;5043791;28;20045;-70
2023/09/16 11:44:12;;;;;;;223.80;212.13;;;24.60;58.70;;;;;;5036646;28;20045;-70
2023/09/16 11:46:39;;;;;;;233.60;221.27;;;24.60;58.90;;;;;;5041056;28;20056;-70
2023/09/16 11:49:05;;;;;;;223.13;211.27;;;24.70;58.90;;;;;;5016350;28;20033;-70
2023/09/16 11:51:36;;;;;;;213.80;202.20;;;24.80;58.70;;;;;;5034144;28;20118;-70
2023/09/16 11:54:03;;;;;;;220.73;209.17;;;24.90;58.70;;;;;;5037540;28;20519;-70
2023/09/16 11:56:31;;;;;;;208.43;196.70;;;25.00;57.70;;;;;;5043738;28;20511;-70
2023/09/16 11:58:58;;;;;;;218.57;206.97;;;25.10;57.90;;;;;;5043233;28;20043;-70
2023/09/16 12:01:34;;;;;;;199.23;188.33;;;25.20;57.50;;;;;;5033166;28;20195;-70
2023/09/16 12:04:03;;;;;;;209.67;198.10;;;25.20;56.40;;;;;;5070610;28;20037;-70
2023/09/16 12:06:31;;;;;;;228.47;216.87;;;25.20;57.40;;;;;;5038385;28;20178;-70
2023/09/16 12:08:59;;;;;;;49.47;46.77;;;25.20;57.40;;;;;;5041473;28;20037;-71
2023/09/16 12:11:26;;;;;;;118.53;112.10;;;25.20;57.30;;;;;;5037740;28;20436;-71
2023/09/16 12:13:54;;;;;;;199.97;188.03;;;25.20;56.60;;;;;;5023347;28;20037;-71
2023/09/16 12:16:20;;;;;;;77.83;74.23;;;25.20;56.60;;;;;;5045988;28;20041;-72
2023/09/16 12:18:47;;;;;;;206.07;194.60;;;25.30;57.30;;;;;;5033919;28;20097;-70